sensor_id;sensor_type;location;lat;lon;timestamp;P1;durP1;ratioP1;P2;durP2;ratioP2
34832;SDS011;55941;50.800;4.342;2022-08-11T00:02:25;19.30;;;2.13;;
34832;SDS011;55941;50.800;4.342;2022-08-11T00:04:53;5.93;;;1.70;;
34832;SDS011;55941;50.800;4.342;2022-08-11T00:07:21;5.28;;;1.77;;
34832;SDS011;55941;50.800;4.342;2022-08-11T00:09:48;9.40;;;1.60;;
34832;SDS011;55941;50.800;4.342;2022-08-11T00:12:15;11.50;;;2.20;;
34832;SDS011;55941;50.800;4.342;2022-08-11T00:14:42;7.30;;;1.83;;
34832;SDS011;55941;50.800;4.342;2022-08-11T00:17:13;9.73;;;1.93;;
34832;SDS011;55941;50.800;4.342;2022-08-11T00:19:44;13.02;;;2.47;;
34832;SDS011;55941;50.800;4.342;2022-08-11T00:22:21;5.82;;;2.00;;
34832;SDS011;55941;50.800;4.342;2022-08-11T00:24:48;5.43;;;1.80;;
34832;SDS011;55941;50.800;4.342;2022-08-11T00:27:14;10.13;;;2.00;;
34832;SDS011;55941;50.800;4.342;2022-08-11T00:29:40;6.78;;;1.80;;
34832;SDS011;55941;50.800;4.342;2022-08-11T00:32:17;9.20;;;1.77;;
34832;SDS011;55941;50.800;4.342;2022-08-11T00:34:43;11.23;;;1.95;;
34832;SDS011;55941;50.800;4.342;2022-08-11T00:37:11;8.35;;;2.00;;
34832;SDS011;55941;50.800;4.342;2022-08-11T00:39:46;7.82;;;2.15;;
34832;SDS011;55941;50.800;4.342;2022-08-11T00:45:06;7.03;;;2.00;;
34832;SDS011;55941;50.800;4.342;2022-08-11T01:05:13;5.13;;;1.55;;
34832;SDS011;55941;50.800;4.342;2022-08-11T01:08:06;4.28;;;1.85;;
34832;SDS011;55941;50.800;4.342;2022-08-11T01:10:51;6.20;;;1.85;;
34832;SDS011;55941;50.800;4.342;2022-08-11T01:44:48;4.13;;;1.73;;
34832;SDS011;55941;50.800;4.342;2022-08-11T01:47:58;3.88;;;1.92;;
34832;SDS011;55941;50.800;4.342;2022-08-11T01:53:46;5.78;;;1.90;;
34832;SDS011;55941;50.800;4.342;2022-08-11T02:04:21;8.43;;;2.10;;
34832;SDS011;55941;50.800;4.342;2022-08-11T02:20:54;8.98;;;2.08;;
34832;SDS011;55941;50.800;4.342;2022-08-11T02:23:50;11.23;;;2.20;;
34832;SDS011;55941;50.800;4.342;2022-08-11T02:26:20;3.80;;;1.90;;
34832;SDS011;55941;50.800;4.342;2022-08-11T02:29:00;3.75;;;1.83;;
34832;SDS011;55941;50.800;4.342;2022-08-11T02:32:18;10.15;;;2.28;;
34832;SDS011;55941;50.800;4.342;2022-08-11T02:35:00;11.82;;;2.10;;
34832;SDS011;55941;50.800;4.342;2022-08-11T02:37:36;5.40;;;1.90;;
34832;SDS011;55941;50.800;4.342;2022-08-11T02:43:21;8.73;;;2.25;;
34832;SDS011;55941;50.800;4.342;2022-08-11T02:45:55;3.22;;;1.80;;
34832;SDS011;55941;50.800;4.342;2022-08-11T02:49:04;7.15;;;1.65;;
34832;SDS011;55941;50.800;4.342;2022-08-11T02:55:18;4.45;;;1.70;;
34832;SDS011;55941;50.800;4.342;2022-08-11T02:57:54;6.95;;;1.80;;
34832;SDS011;55941;50.800;4.342;2022-08-11T03:00:29;6.15;;;1.98;;
34832;SDS011;55941;50.800;4.342;2022-08-11T03:03:12;3.53;;;1.70;;
34832;SDS011;55941;50.800;4.342;2022-08-11T03:05:57;6.97;;;1.80;;
34832;SDS011;55941;50.800;4.342;2022-08-11T03:08:52;4.53;;;2.03;;
34832;SDS011;55941;50.800;4.342;2022-08-11T03:18:32;3.97;;;1.80;;
34832;SDS011;55941;50.800;4.342;2022-08-11T03:21:21;3.15;;;1.95;;
34832;SDS011;55941;50.800;4.342;2022-08-11T03:24:04;4.78;;;1.80;;
34832;SDS011;55941;50.800;4.342;2022-08-11T03:26:53;4.75;;;2.08;;
34832;SDS011;55941;50.800;4.342;2022-08-11T03:29:30;5.63;;;2.15;;
34832;SDS011;55941;50.800;4.342;2022-08-11T03:32:09;6.32;;;1.88;;
34832;SDS011;55941;50.800;4.342;2022-08-11T03:34:45;8.70;;;1.73;;
34832;SDS011;55941;50.800;4.342;2022-08-11T03:37:18;6.50;;;2.17;;
34832;SDS011;55941;50.800;4.342;2022-08-11T03:43:06;8.88;;;2.15;;
34832;SDS011;55941;50.800;4.342;2022-08-11T03:46:05;11.27;;;2.20;;
34832;SDS011;55941;50.800;4.342;2022-08-11T03:49:04;7.25;;;2.47;;
34832;SDS011;55941;50.800;4.342;2022-08-11T03:51:52;6.38;;;1.58;;
34832;SDS011;55941;50.800;4.342;2022-08-11T03:56:56;10.77;;;2.05;;
34832;SDS011;55941;50.800;4.342;2022-08-11T04:02:39;8.05;;;2.13;;
34832;SDS011;55941;50.800;4.342;2022-08-11T04:48:31;4.60;;;2.17;;
34832;SDS011;55941;50.800;4.342;2022-08-11T05:10:39;8.80;;;2.47;;
34832;SDS011;55941;50.800;4.342;2022-08-11T05:13:42;9.23;;;2.10;;
34832;SDS011;55941;50.800;4.342;2022-08-11T05:16:45;10.73;;;2.33;;
34832;SDS011;55941;50.800;4.342;2022-08-11T05:19:44;12.82;;;2.30;;
34832;SDS011;55941;50.800;4.342;2022-08-11T05:22:31;18.75;;;2.72;;
34832;SDS011;55941;50.800;4.342;2022-08-11T05:25:28;9.40;;;2.55;;
34832;SDS011;55941;50.800;4.342;2022-08-11T05:28:28;9.27;;;2.70;;
34832;SDS011;55941;50.800;4.342;2022-08-11T05:31:18;15.18;;;2.63;;
34832;SDS011;55941;50.800;4.342;2022-08-11T05:37:04;8.80;;;2.58;;
34832;SDS011;55941;50.800;4.342;2022-08-11T05:39:41;9.40;;;2.47;;
34832;SDS011;55941;50.800;4.342;2022-08-11T05:42:30;13.20;;;2.65;;
34832;SDS011;55941;50.800;4.342;2022-08-11T05:45:16;8.52;;;2.28;;
34832;SDS011;55941;50.800;4.342;2022-08-11T05:48:02;8.50;;;2.70;;
34832;SDS011;55941;50.800;4.342;2022-08-11T05:50:51;7.25;;;2.70;;
34832;SDS011;55941;50.800;4.342;2022-08-11T05:53:53;13.18;;;2.90;;
34832;SDS011;55941;50.800;4.342;2022-08-11T05:57:01;10.40;;;2.60;;
34832;SDS011;55941;50.800;4.342;2022-08-11T05:59:29;11.98;;;2.70;;
34832;SDS011;55941;50.800;4.342;2022-08-11T06:02:01;11.30;;;2.88;;
34832;SDS011;55941;50.800;4.342;2022-08-11T06:04:28;28.95;;;4.18;;
34832;SDS011;55941;50.800;4.342;2022-08-11T06:06:56;38.25;;;4.13;;
34832;SDS011;55941;50.800;4.342;2022-08-11T06:09:32;21.85;;;2.92;;
34832;SDS011;55941;50.800;4.342;2022-08-11T06:11:59;11.02;;;2.90;;
34832;SDS011;55941;50.800;4.342;2022-08-11T06:14:33;9.70;;;2.58;;
34832;SDS011;55941;50.800;4.342;2022-08-11T06:17:05;8.57;;;2.25;;
34832;SDS011;55941;50.800;4.342;2022-08-11T06:19:32;12.38;;;2.20;;
34832;SDS011;55941;50.800;4.342;2022-08-11T06:22:00;7.35;;;2.55;;
34832;SDS011;55941;50.800;4.342;2022-08-11T06:24:26;11.05;;;2.50;;
34832;SDS011;55941;50.800;4.342;2022-08-11T06:26:53;7.18;;;2.80;;
34832;SDS011;55941;50.800;4.342;2022-08-11T06:29:21;8.25;;;2.65;;
34832;SDS011;55941;50.800;4.342;2022-08-11T06:32:23;13.25;;;2.58;;
34832;SDS011;55941;50.800;4.342;2022-08-11T06:39:58;15.63;;;2.90;;
34832;SDS011;55941;50.800;4.342;2022-08-11T06:42:42;10.93;;;2.47;;
34832;SDS011;55941;50.800;4.342;2022-08-11T06:47:50;12.20;;;2.50;;
34832;SDS011;55941;50.800;4.342;2022-08-11T06:50:17;17.08;;;2.88;;
34832;SDS011;55941;50.800;4.342;2022-08-11T06:53:05;12.88;;;2.67;;
34832;SDS011;55941;50.800;4.342;2022-08-11T06:55:35;9.32;;;2.53;;
34832;SDS011;55941;50.800;4.342;2022-08-11T06:58:24;13.43;;;3.58;;
34832;SDS011;55941;50.800;4.342;2022-08-11T07:01:16;15.52;;;2.63;;
34832;SDS011;55941;50.800;4.342;2022-08-11T07:03:53;14.38;;;2.70;;
34832;SDS011;55941;50.800;4.342;2022-08-11T07:09:18;8.98;;;2.40;;
34832;SDS011;55941;50.800;4.342;2022-08-11T07:15:05;6.63;;;2.20;;
34832;SDS011;55941;50.800;4.342;2022-08-11T07:17:52;11.02;;;2.15;;
34832;SDS011;55941;50.800;4.342;2022-08-11T07:20:42;9.80;;;2.33;;
34832;SDS011;55941;50.800;4.342;2022-08-11T07:26:47;7.55;;;2.85;;
34832;SDS011;55941;50.800;4.342;2022-08-11T07:29:36;10.90;;;2.40;;
34832;SDS011;55941;50.800;4.342;2022-08-11T07:32:13;5.38;;;2.20;;
34832;SDS011;55941;50.800;4.342;2022-08-11T07:34:44;10.38;;;2.47;;
34832;SDS011;55941;50.800;4.342;2022-08-11T07:37:14;8.75;;;2.20;;
34832;SDS011;55941;50.800;4.342;2022-08-11T07:39:43;9.00;;;2.67;;
34832;SDS011;55941;50.800;4.342;2022-08-11T07:42:16;16.33;;;2.63;;
34832;SDS011;55941;50.800;4.342;2022-08-11T07:44:51;11.88;;;2.50;;
34832;SDS011;55941;50.800;4.342;2022-08-11T07:47:38;9.77;;;2.47;;
34832;SDS011;55941;50.800;4.342;2022-08-11T07:50:23;13.13;;;2.58;;
34832;SDS011;55941;50.800;4.342;2022-08-11T07:53:08;8.98;;;2.58;;
34832;SDS011;55941;50.800;4.342;2022-08-11T07:55:34;4.95;;;2.20;;
34832;SDS011;55941;50.800;4.342;2022-08-11T07:58:02;9.82;;;2.60;;
34832;SDS011;55941;50.800;4.342;2022-08-11T08:00:48;12.90;;;2.40;;
34832;SDS011;55941;50.800;4.342;2022-08-11T08:03:35;5.10;;;2.30;;
34832;SDS011;55941;50.800;4.342;2022-08-11T08:06:22;15.90;;;2.22;;
34832;SDS011;55941;50.800;4.342;2022-08-11T08:09:07;6.07;;;2.30;;
34832;SDS011;55941;50.800;4.342;2022-08-11T08:11:53;15.10;;;2.40;;
34832;SDS011;55941;50.800;4.342;2022-08-11T08:14:38;11.45;;;2.28;;
34832;SDS011;55941;50.800;4.342;2022-08-11T08:17:23;9.38;;;2.50;;
34832;SDS011;55941;50.800;4.342;2022-08-11T08:20:10;7.40;;;2.30;;
34832;SDS011;55941;50.800;4.342;2022-08-11T08:22:37;8.32;;;2.25;;
34832;SDS011;55941;50.800;4.342;2022-08-11T08:25:04;6.00;;;2.40;;
34832;SDS011;55941;50.800;4.342;2022-08-11T08:27:31;5.90;;;1.85;;
34832;SDS011;55941;50.800;4.342;2022-08-11T08:30:08;7.00;;;1.95;;
34832;SDS011;55941;50.800;4.342;2022-08-11T08:32:53;6.50;;;2.05;;
34832;SDS011;55941;50.800;4.342;2022-08-11T08:35:22;6.78;;;2.00;;
34832;SDS011;55941;50.800;4.342;2022-08-11T08:37:48;6.32;;;2.20;;
34832;SDS011;55941;50.800;4.342;2022-08-11T08:40:16;6.55;;;2.10;;
34832;SDS011;55941;50.800;4.342;2022-08-11T08:42:49;10.60;;;2.60;;
34832;SDS011;55941;50.800;4.342;2022-08-11T08:45:19;12.50;;;2.10;;
34832;SDS011;55941;50.800;4.342;2022-08-11T08:50:19;9.32;;;1.92;;
34832;SDS011;55941;50.800;4.342;2022-08-11T08:52:55;20.05;;;2.30;;
34832;SDS011;55941;50.800;4.342;2022-08-11T08:55:26;11.02;;;1.98;;
34832;SDS011;55941;50.800;4.342;2022-08-11T08:57:54;5.80;;;2.08;;
34832;SDS011;55941;50.800;4.342;2022-08-11T09:00:24;8.05;;;2.28;;
34832;SDS011;55941;50.800;4.342;2022-08-11T09:03:04;10.50;;;2.20;;
34832;SDS011;55941;50.800;4.342;2022-08-11T09:05:30;5.50;;;2.33;;
34832;SDS011;55941;50.800;4.342;2022-08-11T09:07:56;4.38;;;1.95;;
34832;SDS011;55941;50.800;4.342;2022-08-11T09:10:22;5.03;;;1.80;;
34832;SDS011;55941;50.800;4.342;2022-08-11T09:12:49;7.60;;;1.92;;
34832;SDS011;55941;50.800;4.342;2022-08-11T09:15:16;11.10;;;2.40;;
34832;SDS011;55941;50.800;4.342;2022-08-11T09:20:24;9.60;;;2.10;;
34832;SDS011;55941;50.800;4.342;2022-08-11T09:22:51;9.30;;;2.28;;
34832;SDS011;55941;50.800;4.342;2022-08-11T09:25:42;17.25;;;2.20;;
34832;SDS011;55941;50.800;4.342;2022-08-11T09:28:27;9.35;;;2.10;;
34832;SDS011;55941;50.800;4.342;2022-08-11T09:30:55;7.70;;;2.20;;
34832;SDS011;55941;50.800;4.342;2022-08-11T09:33:25;6.40;;;2.13;;
34832;SDS011;55941;50.800;4.342;2022-08-11T09:35:53;5.57;;;2.08;;
34832;SDS011;55941;50.800;4.342;2022-08-11T09:38:21;6.55;;;2.47;;
34832;SDS011;55941;50.800;4.342;2022-08-11T09:41:08;8.95;;;2.55;;
34832;SDS011;55941;50.800;4.342;2022-08-11T09:43:38;12.95;;;2.08;;
34832;SDS011;55941;50.800;4.342;2022-08-11T09:46:25;7.53;;;1.80;;
34832;SDS011;55941;50.800;4.342;2022-08-11T09:48:52;6.20;;;2.30;;
34832;SDS011;55941;50.800;4.342;2022-08-11T09:51:22;7.80;;;1.88;;
34832;SDS011;55941;50.800;4.342;2022-08-11T09:53:49;10.45;;;2.28;;
34832;SDS011;55941;50.800;4.342;2022-08-11T09:56:16;9.88;;;2.70;;
34832;SDS011;55941;50.800;4.342;2022-08-11T09:59:03;11.32;;;2.55;;
34832;SDS011;55941;50.800;4.342;2022-08-11T10:02:13;12.93;;;2.22;;
34832;SDS011;55941;50.800;4.342;2022-08-11T10:04:34;12.50;;;2.20;;
34832;SDS011;55941;50.800;4.342;2022-08-11T10:07:07;4.68;;;2.17;;
34832;SDS011;55941;50.800;4.342;2022-08-11T10:12:29;9.82;;;2.65;;
34832;SDS011;55941;50.800;4.342;2022-08-11T10:15:01;5.45;;;1.85;;
34832;SDS011;55941;50.800;4.342;2022-08-11T10:17:48;11.40;;;2.22;;
34832;SDS011;55941;50.800;4.342;2022-08-11T10:20:39;12.30;;;2.20;;
34832;SDS011;55941;50.800;4.342;2022-08-11T10:23:06;11.63;;;2.20;;
34832;SDS011;55941;50.800;4.342;2022-08-11T10:25:52;9.52;;;2.40;;
34832;SDS011;55941;50.800;4.342;2022-08-11T10:28:37;3.20;;;1.63;;
34832;SDS011;55941;50.800;4.342;2022-08-11T10:31:03;4.93;;;2.30;;
34832;SDS011;55941;50.800;4.342;2022-08-11T10:33:48;6.53;;;2.13;;
34832;SDS011;55941;50.800;4.342;2022-08-11T10:39:03;10.55;;;2.75;;
34832;SDS011;55941;50.800;4.342;2022-08-11T10:41:30;12.02;;;2.22;;
34832;SDS011;55941;50.800;4.342;2022-08-11T10:44:19;7.80;;;1.92;;
34832;SDS011;55941;50.800;4.342;2022-08-11T10:46:47;5.18;;;1.85;;
34832;SDS011;55941;50.800;4.342;2022-08-11T10:49:32;10.00;;;2.28;;
34832;SDS011;55941;50.800;4.342;2022-08-11T10:51:58;5.90;;;2.00;;
34832;SDS011;55941;50.800;4.342;2022-08-11T10:54:44;15.18;;;2.10;;
34832;SDS011;55941;50.800;4.342;2022-08-11T10:57:29;4.35;;;1.60;;
34832;SDS011;55941;50.800;4.342;2022-08-11T11:00:14;6.28;;;1.70;;
34832;SDS011;55941;50.800;4.342;2022-08-11T11:02:41;6.97;;;2.20;;
34832;SDS011;55941;50.800;4.342;2022-08-11T11:05:13;7.88;;;2.45;;
34832;SDS011;55941;50.800;4.342;2022-08-11T11:08:00;11.23;;;2.28;;
34832;SDS011;55941;50.800;4.342;2022-08-11T11:10:55;14.20;;;2.00;;
34832;SDS011;55941;50.800;4.342;2022-08-11T11:13:29;7.32;;;1.77;;
34832;SDS011;55941;50.800;4.342;2022-08-11T11:16:16;11.20;;;2.03;;
34832;SDS011;55941;50.800;4.342;2022-08-11T11:19:01;8.32;;;2.42;;
34832;SDS011;55941;50.800;4.342;2022-08-11T11:21:32;10.23;;;2.00;;
34832;SDS011;55941;50.800;4.342;2022-08-11T11:24:11;12.35;;;2.13;;
34832;SDS011;55941;50.800;4.342;2022-08-11T11:32:20;11.88;;;1.85;;
34832;SDS011;55941;50.800;4.342;2022-08-11T11:35:09;11.02;;;2.50;;
34832;SDS011;55941;50.800;4.342;2022-08-11T11:37:41;6.13;;;1.80;;
34832;SDS011;55941;50.800;4.342;2022-08-11T11:40:16;5.43;;;1.73;;
34832;SDS011;55941;50.800;4.342;2022-08-11T11:42:48;7.10;;;1.88;;
34832;SDS011;55941;50.800;4.342;2022-08-11T11:45:16;4.25;;;1.80;;
34832;SDS011;55941;50.800;4.342;2022-08-11T11:47:44;4.90;;;1.85;;
34832;SDS011;55941;50.800;4.342;2022-08-11T11:50:23;4.43;;;2.25;;
34832;SDS011;55941;50.800;4.342;2022-08-11T11:52:50;3.45;;;1.70;;
34832;SDS011;55941;50.800;4.342;2022-08-11T11:55:17;3.45;;;1.60;;
34832;SDS011;55941;50.800;4.342;2022-08-11T11:57:47;4.07;;;1.85;;
34832;SDS011;55941;50.800;4.342;2022-08-11T12:00:31;3.67;;;1.40;;
34832;SDS011;55941;50.800;4.342;2022-08-11T12:03:17;2.47;;;1.67;;
34832;SDS011;55941;50.800;4.342;2022-08-11T12:05:44;4.25;;;1.55;;
34832;SDS011;55941;50.800;4.342;2022-08-11T12:08:11;3.88;;;1.50;;
34832;SDS011;55941;50.800;4.342;2022-08-11T12:10:42;11.23;;;1.40;;
34832;SDS011;55941;50.800;4.342;2022-08-11T12:13:36;2.15;;;1.70;;
34832;SDS011;55941;50.800;4.342;2022-08-11T12:16:10;3.85;;;1.50;;
34832;SDS011;55941;50.800;4.342;2022-08-11T12:18:39;6.40;;;1.70;;
34832;SDS011;55941;50.800;4.342;2022-08-11T12:21:07;8.52;;;1.67;;
34832;SDS011;55941;50.800;4.342;2022-08-11T12:23:34;6.90;;;1.38;;
34832;SDS011;55941;50.800;4.342;2022-08-11T12:26:20;4.82;;;1.17;;
34832;SDS011;55941;50.800;4.342;2022-08-11T12:29:05;5.25;;;1.60;;
34832;SDS011;55941;50.800;4.342;2022-08-11T12:31:34;4.15;;;1.48;;
34832;SDS011;55941;50.800;4.342;2022-08-11T12:34:04;2.78;;;1.40;;
34832;SDS011;55941;50.800;4.342;2022-08-11T12:39:22;7.60;;;1.58;;
34832;SDS011;55941;50.800;4.342;2022-08-11T12:42:10;3.83;;;1.25;;
34832;SDS011;55941;50.800;4.342;2022-08-11T12:44:57;4.72;;;1.42;;
34832;SDS011;55941;50.800;4.342;2022-08-11T12:47:46;4.22;;;1.50;;
34832;SDS011;55941;50.800;4.342;2022-08-11T12:50:32;4.50;;;1.50;;
34832;SDS011;55941;50.800;4.342;2022-08-11T12:53:18;7.70;;;1.52;;
34832;SDS011;55941;50.800;4.342;2022-08-11T12:55:58;8.98;;;1.63;;
34832;SDS011;55941;50.800;4.342;2022-08-11T12:58:48;6.93;;;1.63;;
34832;SDS011;55941;50.800;4.342;2022-08-11T13:01:16;5.75;;;1.40;;
34832;SDS011;55941;50.800;4.342;2022-08-11T13:04:02;6.13;;;1.77;;
34832;SDS011;55941;50.800;4.342;2022-08-11T13:06:48;13.38;;;1.48;;
34832;SDS011;55941;50.800;4.342;2022-08-11T13:09:16;4.80;;;2.10;;
34832;SDS011;55941;50.800;4.342;2022-08-11T13:11:43;9.68;;;1.42;;
34832;SDS011;55941;50.800;4.342;2022-08-11T13:14:28;4.10;;;1.50;;
34832;SDS011;55941;50.800;4.342;2022-08-11T13:16:57;5.50;;;1.63;;
34832;SDS011;55941;50.800;4.342;2022-08-11T13:19:43;12.23;;;2.00;;
34832;SDS011;55941;50.800;4.342;2022-08-11T13:22:11;8.60;;;1.60;;
34832;SDS011;55941;50.800;4.342;2022-08-11T13:24:40;8.57;;;1.35;;
34832;SDS011;55941;50.800;4.342;2022-08-11T13:27:06;7.65;;;1.23;;
34832;SDS011;55941;50.800;4.342;2022-08-11T13:29:32;7.15;;;1.35;;
34832;SDS011;55941;50.800;4.342;2022-08-11T13:31:59;9.00;;;1.50;;
34832;SDS011;55941;50.800;4.342;2022-08-11T13:34:26;9.18;;;1.65;;
34832;SDS011;55941;50.800;4.342;2022-08-11T13:36:56;9.60;;;1.25;;
34832;SDS011;55941;50.800;4.342;2022-08-11T13:41:53;8.02;;;1.60;;
34832;SDS011;55941;50.800;4.342;2022-08-11T13:44:21;6.97;;;1.48;;
34832;SDS011;55941;50.800;4.342;2022-08-11T13:46:51;7.78;;;1.45;;
34832;SDS011;55941;50.800;4.342;2022-08-11T13:49:20;7.20;;;1.42;;
34832;SDS011;55941;50.800;4.342;2022-08-11T13:51:46;8.10;;;2.00;;
34832;SDS011;55941;50.800;4.342;2022-08-11T13:54:26;6.45;;;1.48;;
34832;SDS011;55941;50.800;4.342;2022-08-11T13:56:55;4.20;;;1.23;;
34832;SDS011;55941;50.800;4.342;2022-08-11T13:59:25;9.40;;;1.38;;
34832;SDS011;55941;50.800;4.342;2022-08-11T14:01:55;13.18;;;1.55;;
34832;SDS011;55941;50.800;4.342;2022-08-11T14:04:33;5.25;;;1.55;;
34832;SDS011;55941;50.800;4.342;2022-08-11T14:07:05;5.07;;;1.42;;
34832;SDS011;55941;50.800;4.342;2022-08-11T14:09:35;6.38;;;1.48;;
34832;SDS011;55941;50.800;4.342;2022-08-11T14:12:06;4.65;;;1.20;;
34832;SDS011;55941;50.800;4.342;2022-08-11T14:14:58;5.75;;;1.90;;
34832;SDS011;55941;50.800;4.342;2022-08-11T14:17:31;5.22;;;1.67;;
34832;SDS011;55941;50.800;4.342;2022-08-11T14:20:00;12.68;;;1.65;;
34832;SDS011;55941;50.800;4.342;2022-08-11T14:22:31;9.45;;;1.88;;
34832;SDS011;55941;50.800;4.342;2022-08-11T14:24:57;7.32;;;1.73;;
34832;SDS011;55941;50.800;4.342;2022-08-11T14:27:24;10.55;;;1.73;;
34832;SDS011;55941;50.800;4.342;2022-08-11T14:29:54;5.28;;;1.45;;
34832;SDS011;55941;50.800;4.342;2022-08-11T14:32:21;7.65;;;1.42;;
34832;SDS011;55941;50.800;4.342;2022-08-11T14:34:49;4.57;;;1.58;;
34832;SDS011;55941;50.800;4.342;2022-08-11T14:37:20;5.78;;;1.58;;
34832;SDS011;55941;50.800;4.342;2022-08-11T14:39:49;8.38;;;1.60;;
34832;SDS011;55941;50.800;4.342;2022-08-11T14:42:22;6.28;;;1.52;;
34832;SDS011;55941;50.800;4.342;2022-08-11T14:45:14;7.53;;;1.65;;
34832;SDS011;55941;50.800;4.342;2022-08-11T14:48:04;5.88;;;1.58;;
34832;SDS011;55941;50.800;4.342;2022-08-11T14:50:34;10.27;;;1.60;;
34832;SDS011;55941;50.800;4.342;2022-08-11T14:53:04;7.78;;;1.77;;
34832;SDS011;55941;50.800;4.342;2022-08-11T14:55:37;6.97;;;1.90;;
34832;SDS011;55941;50.800;4.342;2022-08-11T14:58:25;8.23;;;1.80;;
34832;SDS011;55941;50.800;4.342;2022-08-11T15:00:54;8.90;;;1.98;;
34832;SDS011;55941;50.800;4.342;2022-08-11T15:03:22;6.10;;;1.60;;
34832;SDS011;55941;50.800;4.342;2022-08-11T15:05:53;8.27;;;1.35;;
34832;SDS011;55941;50.800;4.342;2022-08-11T15:08:20;3.00;;;1.50;;
34832;SDS011;55941;50.800;4.342;2022-08-11T15:11:07;13.63;;;2.22;;
34832;SDS011;55941;50.800;4.342;2022-08-11T15:13:55;8.13;;;2.00;;
34832;SDS011;55941;50.800;4.342;2022-08-11T15:16:27;5.70;;;1.88;;
34832;SDS011;55941;50.800;4.342;2022-08-11T15:19:12;9.10;;;1.55;;
34832;SDS011;55941;50.800;4.342;2022-08-11T15:21:39;10.52;;;1.77;;
34832;SDS011;55941;50.800;4.342;2022-08-11T15:24:24;6.97;;;1.80;;
34832;SDS011;55941;50.800;4.342;2022-08-11T15:26:50;9.05;;;1.60;;
34832;SDS011;55941;50.800;4.342;2022-08-11T15:29:36;3.25;;;1.63;;
34832;SDS011;55941;50.800;4.342;2022-08-11T15:32:24;9.52;;;1.70;;
34832;SDS011;55941;50.800;4.342;2022-08-11T15:35:10;6.55;;;1.75;;
34832;SDS011;55941;50.800;4.342;2022-08-11T15:37:57;6.50;;;1.92;;
34832;SDS011;55941;50.800;4.342;2022-08-11T15:40:44;12.68;;;1.90;;
34832;SDS011;55941;50.800;4.342;2022-08-11T15:43:30;3.30;;;1.50;;
34832;SDS011;55941;50.800;4.342;2022-08-11T15:49:07;8.43;;;1.80;;
34832;SDS011;55941;50.800;4.342;2022-08-11T15:51:47;10.30;;;1.88;;
34832;SDS011;55941;50.800;4.342;2022-08-11T15:54:22;4.85;;;1.33;;
34832;SDS011;55941;50.800;4.342;2022-08-11T15:56:50;8.70;;;1.73;;
34832;SDS011;55941;50.800;4.342;2022-08-11T15:59:19;11.05;;;1.67;;
34832;SDS011;55941;50.800;4.342;2022-08-11T16:02:07;5.22;;;2.05;;
34832;SDS011;55941;50.800;4.342;2022-08-11T16:04:57;9.27;;;1.77;;
34832;SDS011;55941;50.800;4.342;2022-08-11T16:07:26;10.48;;;2.33;;
34832;SDS011;55941;50.800;4.342;2022-08-11T16:10:04;7.63;;;1.90;;
34832;SDS011;55941;50.800;4.342;2022-08-11T16:12:39;5.20;;;1.85;;
34832;SDS011;55941;50.800;4.342;2022-08-11T16:15:27;8.15;;;1.80;;
34832;SDS011;55941;50.800;4.342;2022-08-11T16:18:12;9.30;;;1.83;;
34832;SDS011;55941;50.800;4.342;2022-08-11T16:20:43;8.80;;;1.75;;
34832;SDS011;55941;50.800;4.342;2022-08-11T16:23:10;9.88;;;2.00;;
34832;SDS011;55941;50.800;4.342;2022-08-11T16:25:39;13.35;;;1.80;;
34832;SDS011;55941;50.800;4.342;2022-08-11T16:28:07;9.10;;;1.63;;
34832;SDS011;55941;50.800;4.342;2022-08-11T16:30:36;9.85;;;1.80;;
34832;SDS011;55941;50.800;4.342;2022-08-11T16:33:10;8.63;;;1.60;;
34832;SDS011;55941;50.800;4.342;2022-08-11T16:35:37;8.25;;;1.25;;
34832;SDS011;55941;50.800;4.342;2022-08-11T16:38:23;7.72;;;1.60;;
34832;SDS011;55941;50.800;4.342;2022-08-11T16:41:05;6.32;;;1.67;;
34832;SDS011;55941;50.800;4.342;2022-08-11T16:43:34;4.38;;;1.67;;
34832;SDS011;55941;50.800;4.342;2022-08-11T16:46:23;13.50;;;2.03;;
34832;SDS011;55941;50.800;4.342;2022-08-11T16:49:10;6.63;;;1.88;;
34832;SDS011;55941;50.800;4.342;2022-08-11T16:51:39;9.10;;;1.75;;
34832;SDS011;55941;50.800;4.342;2022-08-11T16:54:06;8.48;;;1.67;;
34832;SDS011;55941;50.800;4.342;2022-08-11T16:56:51;6.72;;;1.70;;
34832;SDS011;55941;50.800;4.342;2022-08-11T16:59:19;6.63;;;1.67;;
34832;SDS011;55941;50.800;4.342;2022-08-11T17:02:07;5.53;;;1.45;;
34832;SDS011;55941;50.800;4.342;2022-08-11T17:07:26;4.75;;;1.70;;
34832;SDS011;55941;50.800;4.342;2022-08-11T17:10:47;6.63;;;1.60;;
34832;SDS011;55941;50.800;4.342;2022-08-11T17:13:28;9.63;;;1.80;;
34832;SDS011;55941;50.800;4.342;2022-08-11T17:16:00;10.48;;;2.00;;
34832;SDS011;55941;50.800;4.342;2022-08-11T17:18:32;5.00;;;1.60;;
34832;SDS011;55941;50.800;4.342;2022-08-11T17:21:38;9.75;;;2.30;;
34832;SDS011;55941;50.800;4.342;2022-08-11T17:24:26;7.63;;;1.73;;
34832;SDS011;55941;50.800;4.342;2022-08-11T17:26:55;11.50;;;1.98;;
34832;SDS011;55941;50.800;4.342;2022-08-11T17:31:53;4.20;;;1.60;;
34832;SDS011;55941;50.800;4.342;2022-08-11T17:34:39;11.60;;;2.15;;
34832;SDS011;55941;50.800;4.342;2022-08-11T17:37:27;10.52;;;2.00;;
34832;SDS011;55941;50.800;4.342;2022-08-11T17:39:56;6.18;;;1.42;;
34832;SDS011;55941;50.800;4.342;2022-08-11T17:42:25;11.65;;;2.00;;
34832;SDS011;55941;50.800;4.342;2022-08-11T17:45:12;3.63;;;1.80;;
34832;SDS011;55941;50.800;4.342;2022-08-11T17:47:58;8.65;;;1.60;;
34832;SDS011;55941;50.800;4.342;2022-08-11T17:50:44;4.18;;;1.67;;
34832;SDS011;55941;50.800;4.342;2022-08-11T17:53:12;10.93;;;1.58;;
34832;SDS011;55941;50.800;4.342;2022-08-11T17:55:59;11.52;;;1.83;;
34832;SDS011;55941;50.800;4.342;2022-08-11T17:58:59;9.75;;;1.95;;
34832;SDS011;55941;50.800;4.342;2022-08-11T18:01:46;10.75;;;2.50;;
34832;SDS011;55941;50.800;4.342;2022-08-11T18:04:13;5.75;;;1.77;;
34832;SDS011;55941;50.800;4.342;2022-08-11T18:06:40;11.85;;;1.80;;
34832;SDS011;55941;50.800;4.342;2022-08-11T18:09:09;12.25;;;1.90;;
34832;SDS011;55941;50.800;4.342;2022-08-11T18:11:58;8.70;;;2.13;;
34832;SDS011;55941;50.800;4.342;2022-08-11T18:14:45;10.05;;;1.92;;
34832;SDS011;55941;50.800;4.342;2022-08-11T18:17:31;10.18;;;2.00;;
34832;SDS011;55941;50.800;4.342;2022-08-11T18:20:16;10.00;;;2.33;;
34832;SDS011;55941;50.800;4.342;2022-08-11T18:23:02;7.50;;;1.90;;
34832;SDS011;55941;50.800;4.342;2022-08-11T18:25:48;5.43;;;1.60;;
34832;SDS011;55941;50.800;4.342;2022-08-11T18:28:42;9.95;;;1.70;;
34832;SDS011;55941;50.800;4.342;2022-08-11T18:31:28;8.27;;;1.90;;
34832;SDS011;55941;50.800;4.342;2022-08-11T18:34:16;4.63;;;2.03;;
34832;SDS011;55941;50.800;4.342;2022-08-11T18:37:09;5.97;;;1.83;;
34832;SDS011;55941;50.800;4.342;2022-08-11T18:40:16;9.05;;;2.00;;
34832;SDS011;55941;50.800;4.342;2022-08-11T18:43:06;4.80;;;1.98;;
34832;SDS011;55941;50.800;4.342;2022-08-11T18:45:52;2.72;;;1.70;;
34832;SDS011;55941;50.800;4.342;2022-08-11T18:48:45;9.65;;;2.03;;
34832;SDS011;55941;50.800;4.342;2022-08-11T18:51:31;4.38;;;1.80;;
34832;SDS011;55941;50.800;4.342;2022-08-11T18:54:17;4.35;;;2.10;;
34832;SDS011;55941;50.800;4.342;2022-08-11T18:57:04;9.02;;;1.98;;
34832;SDS011;55941;50.800;4.342;2022-08-11T18:59:51;8.70;;;2.13;;
34832;SDS011;55941;50.800;4.342;2022-08-11T19:02:38;10.65;;;2.10;;
34832;SDS011;55941;50.800;4.342;2022-08-11T19:05:22;3.15;;;1.90;;
34832;SDS011;55941;50.800;4.342;2022-08-11T19:08:08;7.28;;;2.10;;
34832;SDS011;55941;50.800;4.342;2022-08-11T19:10:54;8.75;;;2.33;;
34832;SDS011;55941;50.800;4.342;2022-08-11T19:13:40;10.18;;;2.40;;
34832;SDS011;55941;50.800;4.342;2022-08-11T19:16:27;13.68;;;2.50;;
34832;SDS011;55941;50.800;4.342;2022-08-11T19:19:13;12.77;;;2.85;;
34832;SDS011;55941;50.800;4.342;2022-08-11T19:21:59;14.20;;;2.72;;